createdAt,value
2023-05-10T00:01:19.653Z,15.10
2023-05-10T00:03:46.857Z,14.76
2023-05-10T00:06:14.122Z,14.80
2023-05-10T00:08:41.281Z,14.97
2023-05-10T00:11:08.635Z,14.69
2023-05-10T00:13:35.786Z,14.70
2023-05-10T00:16:03.070Z,14.81
2023-05-10T00:18:30.323Z,14.40
2023-05-10T00:20:57.520Z,14.83
2023-05-10T00:23:24.668Z,14.70
2023-05-10T00:25:52.110Z,14.66
2023-05-10T00:28:19.308Z,14.37
2023-05-10T00:30:46.464Z,14.48
2023-05-10T00:33:13.685Z,14.42
2023-05-10T00:35:41.269Z,14.57
2023-05-10T00:38:08.455Z,14.51
2023-05-10T00:40:38.090Z,14.51
2023-05-10T00:43:06.026Z,14.48
2023-05-10T00:45:37.259Z,14.44
2023-05-10T00:48:05.480Z,14.54
2023-05-10T00:50:34.554Z,14.40
2023-05-10T00:53:03.168Z,14.63
2023-05-10T00:55:31.655Z,14.56
2023-05-10T00:57:58.994Z,14.03
2023-05-10T01:00:26.687Z,14.13
2023-05-10T01:02:56.913Z,14.00
2023-05-10T01:05:24.133Z,14.03
2023-05-10T01:07:51.934Z,14.37
2023-05-10T01:10:19.475Z,14.22
2023-05-10T01:12:48.659Z,14.18
2023-05-10T01:15:18.988Z,14.33
2023-05-10T01:17:49.804Z,14.38
2023-05-10T01:20:18.529Z,14.41
2023-05-10T01:23:42.623Z,14.49
2023-05-10T01:26:40.511Z,14.33
2023-05-10T01:29:07.599Z,14.36
2023-05-10T01:32:17.133Z,14.04
2023-05-10T01:35:31.302Z,14.12
2023-05-10T01:38:28.370Z,14.08
2023-05-10T01:41:18.176Z,14.00
2023-05-10T01:44:21.467Z,14.04
2023-05-10T01:47:21.204Z,14.11
2023-05-10T01:49:56.200Z,13.94
2023-05-10T01:52:42.948Z,14.04
2023-05-10T01:55:15.494Z,13.72
2023-05-10T01:57:45.824Z,13.78
2023-05-10T02:00:16.143Z,13.71
2023-05-10T02:02:48.751Z,13.90
2023-05-10T02:05:18.765Z,13.98
2023-05-10T02:07:47.160Z,13.64
2023-05-10T02:10:16.758Z,13.70
2023-05-10T02:12:48.440Z,13.64
2023-05-10T02:15:22.997Z,13.81
2023-05-10T02:17:51.084Z,13.71
2023-05-10T02:20:20.370Z,13.88
2023-05-10T02:22:52.613Z,13.76
2023-05-10T02:25:23.498Z,13.64
2023-05-10T02:27:55.212Z,13.61
2023-05-10T02:30:24.869Z,13.43
2023-05-10T02:32:53.279Z,13.31
2023-05-10T02:35:21.942Z,13.57
2023-05-10T02:37:50.018Z,13.58
2023-05-10T02:40:19.210Z,13.48
2023-05-10T02:42:51.480Z,13.61
2023-05-10T02:45:24.503Z,13.44
2023-05-10T02:47:51.970Z,13.29
2023-05-10T02:50:20.890Z,13.54
2023-05-10T02:52:55.137Z,13.45
2023-05-10T02:55:33.309Z,13.15
2023-05-10T02:58:03.214Z,13.44
2023-05-10T03:00:30.725Z,13.17
2023-05-10T03:02:58.209Z,13.30
2023-05-10T03:05:25.787Z,12.94
2023-05-10T03:07:54.409Z,13.20
2023-05-10T03:10:29.451Z,13.46
2023-05-10T03:13:33.710Z,13.23
2023-05-10T03:16:10.980Z,13.28
2023-05-10T03:19:28.514Z,13.00
2023-05-10T03:22:04.073Z,13.17
2023-05-10T03:24:34.678Z,13.11
2023-05-10T03:27:05.152Z,13.09
2023-05-10T03:29:33.994Z,13.23
2023-05-10T03:32:01.739Z,13.03
2023-05-10T03:34:32.322Z,13.09
2023-05-10T03:36:59.629Z,13.27
2023-05-10T03:39:26.898Z,12.97
2023-05-10T03:41:54.097Z,13.19
2023-05-10T03:44:21.385Z,13.16
2023-05-10T03:46:48.916Z,12.76
2023-05-10T03:49:16.420Z,13.28
2023-05-10T03:51:43.602Z,12.82
2023-05-10T03:54:10.773Z,13.33
2023-05-10T03:56:37.903Z,13.19
2023-05-10T03:59:08.303Z,12.95
2023-05-10T04:01:36.148Z,13.15
2023-05-10T04:04:03.582Z,13.27
2023-05-10T04:06:30.802Z,12.87
2023-05-10T04:09:00.950Z,12.89
2023-05-10T04:11:28.874Z,12.99
2023-05-10T04:13:56.026Z,13.05
2023-05-10T04:16:23.236Z,13.11
2023-05-10T04:18:50.446Z,13.14
2023-05-10T04:21:17.647Z,13.05
2023-05-10T04:23:44.896Z,13.23
2023-05-10T04:26:12.292Z,13.17
2023-05-10T04:28:39.738Z,13.09
2023-05-10T04:31:10.385Z,13.26
2023-05-10T04:33:38.115Z,13.12
2023-05-10T04:36:06.051Z,13.26
2023-05-10T04:38:33.368Z,13.39
2023-05-10T04:41:08.714Z,13.30
2023-05-10T04:43:37.132Z,13.44
2023-05-10T04:46:06.075Z,13.50
2023-05-10T04:48:33.290Z,13.38
2023-05-10T04:51:00.614Z,13.17
2023-05-10T04:53:27.759Z,13.54
2023-05-10T04:55:54.929Z,13.93
2023-05-10T04:58:22.338Z,13.59
2023-05-10T05:00:49.598Z,13.56
2023-05-10T05:03:16.864Z,13.72
2023-05-10T05:05:45.774Z,13.37
2023-05-10T05:08:13.713Z,13.73
2023-05-10T05:10:41.197Z,14.00
2023-05-10T05:13:08.378Z,13.94
2023-05-10T05:15:35.590Z,13.97
2023-05-10T05:18:02.807Z,13.64
2023-05-10T05:20:36.327Z,13.59
2023-05-10T05:23:03.510Z,13.68
2023-05-10T05:25:30.790Z,13.85
2023-05-10T05:27:58.001Z,13.75
2023-05-10T05:30:25.244Z,13.91
2023-05-10T05:32:52.442Z,13.78
2023-05-10T05:35:19.720Z,13.64
2023-05-10T05:37:46.895Z,13.68
2023-05-10T05:40:15.033Z,13.40
2023-05-10T05:42:42.385Z,13.58
2023-05-10T05:45:13.860Z,13.80
2023-05-10T05:47:41.480Z,13.50
2023-05-10T05:50:09.294Z,13.83
2023-05-10T05:52:37.002Z,13.57
2023-05-10T05:55:04.636Z,13.74
2023-05-10T05:57:32.047Z,13.76
2023-05-10T05:59:59.290Z,13.89
2023-05-10T06:02:26.723Z,13.59
2023-05-10T06:04:53.925Z,13.80
2023-05-10T06:07:21.290Z,13.68
2023-05-10T06:09:48.498Z,13.85
2023-05-10T06:12:15.672Z,13.90
2023-05-10T06:14:42.873Z,13.79
2023-05-10T06:17:10.115Z,14.05
2023-05-10T06:19:37.759Z,14.24
2023-05-10T06:22:05.035Z,14.29
2023-05-10T06:24:32.227Z,14.40
2023-05-10T06:27:01.116Z,14.16
2023-05-10T06:29:28.356Z,14.49
2023-05-10T06:31:55.701Z,14.25
2023-05-10T06:34:23.039Z,14.23
2023-05-10T06:36:52.920Z,14.39
2023-05-10T06:39:20.077Z,14.43
2023-05-10T06:41:47.271Z,14.12
2023-05-10T06:44:14.482Z,14.48
2023-05-10T06:46:42.692Z,14.48
2023-05-10T06:49:10.159Z,14.18
2023-05-10T06:51:37.345Z,14.16
2023-05-10T06:54:04.521Z,14.46
2023-05-10T06:56:31.681Z,14.45
2023-05-10T06:58:58.934Z,14.67
2023-05-10T07:01:26.188Z,14.48
2023-05-10T07:03:53.467Z,14.32
2023-05-10T07:06:32.398Z,14.62
2023-05-10T07:09:01.549Z,14.81
2023-05-10T07:11:28.790Z,14.48
2023-05-10T07:13:56.022Z,14.96
2023-05-10T07:16:23.358Z,14.74
2023-05-10T07:18:51.595Z,15.22
2023-05-10T07:21:18.828Z,14.83
2023-05-10T07:23:46.117Z,14.92
2023-05-10T07:26:13.254Z,15.06
2023-05-10T07:28:40.480Z,15.28
2023-05-10T07:31:07.704Z,15.17
2023-05-10T07:33:34.849Z,15.08
2023-05-10T07:36:01.976Z,15.32
2023-05-10T07:38:29.096Z,14.88
2023-05-10T07:40:56.236Z,14.99
2023-05-10T07:43:23.561Z,14.88
2023-05-10T07:45:50.760Z,14.88
2023-05-10T07:48:17.916Z,15.09
2023-05-10T07:50:45.049Z,15.19
2023-05-10T07:53:12.199Z,14.69
2023-05-10T07:55:39.491Z,14.99
2023-05-10T07:58:07.150Z,15.12
2023-05-10T08:00:35.624Z,14.92
2023-05-10T08:03:02.964Z,14.91
2023-05-10T08:05:30.498Z,15.03
2023-05-10T08:07:57.676Z,14.99
2023-05-10T08:10:25.727Z,14.87
2023-05-10T08:12:52.870Z,14.18
2023-05-10T08:15:20.120Z,13.98
2023-05-10T08:17:47.364Z,14.91
2023-05-10T08:20:17.628Z,14.92
2023-05-10T08:22:44.859Z,14.25
2023-05-10T08:25:12.297Z,14.35
2023-05-10T08:27:39.469Z,14.38
2023-05-10T08:30:07.699Z,13.94
2023-05-10T08:32:35.911Z,14.51
2023-05-10T08:35:03.598Z,14.74
2023-05-10T08:37:31.303Z,14.88
2023-05-10T08:39:58.485Z,15.03
2023-05-10T08:42:31.172Z,14.52
2023-05-10T08:45:00.212Z,14.32
2023-05-10T08:47:28.867Z,14.03
2023-05-10T08:49:58.041Z,14.13
2023-05-10T08:52:28.374Z,14.44
2023-05-10T08:54:55.951Z,14.38
2023-05-10T08:57:23.581Z,14.36
2023-05-10T08:59:50.841Z,13.93
2023-05-10T09:02:20.543Z,13.70
2023-05-10T09:04:47.878Z,13.86
2023-05-10T09:07:15.328Z,14.42
2023-05-10T09:09:42.926Z,14.35
2023-05-10T09:12:12.477Z,14.59
2023-05-10T09:14:40.452Z,14.12
2023-05-10T09:17:07.916Z,13.89
2023-05-10T09:19:35.161Z,13.84
2023-05-10T09:22:03.353Z,13.99
2023-05-10T09:24:31.538Z,13.97
2023-05-10T09:27:01.564Z,13.68
2023-05-10T09:29:43.642Z,13.80
2023-05-10T09:32:10.803Z,14.01
2023-05-10T09:34:40.924Z,13.89
2023-05-10T09:37:09.156Z,13.92
2023-05-10T09:39:38.600Z,14.07
2023-05-10T09:42:08.804Z,14.51
2023-05-10T09:44:37.041Z,14.31
2023-05-10T09:47:04.758Z,14.40
2023-05-10T09:49:31.953Z,14.20
2023-05-10T09:52:08.545Z,14.65
2023-05-10T09:54:36.179Z,14.07
2023-05-10T09:57:03.448Z,14.52
2023-05-10T09:59:31.276Z,14.44
2023-05-10T10:02:00.615Z,14.03
2023-05-10T10:04:28.948Z,14.20
2023-05-10T10:07:04.788Z,14.37
2023-05-10T10:09:33.479Z,14.23
2023-05-10T10:12:03.040Z,14.48
2023-05-10T10:14:30.908Z,14.02
2023-05-10T10:17:06.640Z,14.48
2023-05-10T10:19:38.822Z,14.45
2023-05-10T10:22:06.991Z,14.26
2023-05-10T10:24:34.742Z,13.90
2023-05-10T10:27:20.517Z,14.20
2023-05-10T10:30:07.556Z,14.13
2023-05-10T10:32:53.346Z,14.14
2023-05-10T10:35:20.859Z,14.56
2023-05-10T10:37:51.658Z,14.61
2023-05-10T10:40:26.825Z,14.56
2023-05-10T10:42:55.173Z,14.71
2023-05-10T10:45:23.988Z,14.42
2023-05-10T10:48:24.082Z,14.61
2023-05-10T10:50:58.992Z,14.71
2023-05-10T10:53:30.012Z,14.88
2023-05-10T10:56:11.234Z,14.99
2023-05-10T10:58:40.450Z,15.02
2023-05-10T11:01:37.694Z,14.90
2023-05-10T11:04:05.041Z,15.07
2023-05-10T11:06:36.768Z,15.06
2023-05-10T11:09:13.279Z,15.20
2023-05-10T11:11:53.471Z,15.46
2023-05-10T11:14:23.482Z,15.39
2023-05-10T11:16:51.571Z,15.57
2023-05-10T11:19:20.886Z,15.64
2023-05-10T11:22:11.953Z,15.55
2023-05-10T11:24:39.127Z,15.66
2023-05-10T11:27:09.365Z,15.43
2023-05-10T11:29:36.501Z,14.95
2023-05-10T11:32:09.059Z,14.85
2023-05-10T11:34:36.205Z,14.87
2023-05-10T11:37:03.458Z,14.77
2023-05-10T11:39:32.892Z,14.91
2023-05-10T11:42:01.056Z,14.59
2023-05-10T11:44:33.447Z,14.68
2023-05-10T11:47:02.655Z,14.54
2023-05-10T11:49:29.963Z,14.82
2023-05-10T11:52:11.944Z,14.75
2023-05-10T11:54:45.517Z,14.99
2023-05-10T11:57:12.712Z,14.99
2023-05-10T11:59:41.730Z,15.15
2023-05-10T12:02:11.382Z,15.26
2023-05-10T12:04:39.163Z,15.49
2023-05-10T12:07:06.729Z,15.32
2023-05-10T12:09:43.346Z,15.36
2023-05-10T12:12:11.640Z,15.32
2023-05-10T12:14:38.824Z,15.43
2023-05-10T12:17:05.998Z,15.60
2023-05-10T12:19:40.119Z,15.35
2023-05-10T12:22:07.461Z,15.55
2023-05-10T12:24:37.154Z,15.51
2023-05-10T12:27:09.614Z,15.48
2023-05-10T12:29:37.435Z,15.77
2023-05-10T12:32:04.879Z,15.65
2023-05-10T12:34:36.976Z,15.75
2023-05-10T12:37:05.011Z,15.83
2023-05-10T12:39:44.019Z,15.90
2023-05-10T12:42:11.924Z,15.83
2023-05-10T12:44:40.739Z,16.04
2023-05-10T12:47:08.361Z,15.76
2023-05-10T12:49:35.603Z,16.13
2023-05-10T12:52:02.854Z,16.14
2023-05-10T12:54:30.007Z,16.30
2023-05-10T12:56:57.158Z,15.84
2023-05-10T12:59:24.330Z,16.29
2023-05-10T13:01:51.457Z,16.34
2023-05-10T13:04:18.616Z,16.29
2023-05-10T13:06:45.817Z,16.00
2023-05-10T13:09:12.993Z,16.25
2023-05-10T13:11:40.479Z,16.21
2023-05-10T13:14:07.936Z,16.64
2023-05-10T13:16:35.230Z,16.31
2023-05-10T13:19:02.441Z,16.60
2023-05-10T13:21:29.665Z,16.44
2023-05-10T13:23:56.834Z,16.59
2023-05-10T13:26:24.020Z,16.40
2023-05-10T13:28:52.509Z,16.63
2023-05-10T13:31:19.977Z,16.59
2023-05-10T13:33:47.156Z,16.48
2023-05-10T13:36:14.302Z,16.53
2023-05-10T13:38:41.468Z,16.80
2023-05-10T13:41:08.677Z,16.76
2023-05-10T13:43:36.968Z,16.93
2023-05-10T13:46:04.254Z,16.84
2023-05-10T13:48:31.469Z,16.66
2023-05-10T13:50:58.692Z,16.99
2023-05-10T13:53:25.887Z,16.93
2023-05-10T13:55:53.071Z,16.89
2023-05-10T13:58:20.255Z,17.02
2023-05-10T14:00:47.425Z,16.77
2023-05-10T14:03:14.639Z,17.00
2023-05-10T14:05:41.911Z,16.84
2023-05-10T14:08:10.346Z,17.03
2023-05-10T14:10:37.877Z,17.22
2023-05-10T14:13:05.070Z,17.11
2023-05-10T14:15:32.265Z,17.32
2023-05-10T14:17:59.495Z,17.26
2023-05-10T14:20:27.134Z,16.77
2023-05-10T14:22:54.301Z,17.20
2023-05-10T14:25:21.722Z,16.84
2023-05-10T14:27:48.926Z,16.79
2023-05-10T14:30:16.129Z,16.72
2023-05-10T14:32:43.427Z,16.89
2023-05-10T14:35:13.107Z,16.82
2023-05-10T14:37:40.799Z,16.58
2023-05-10T14:40:10.254Z,16.92
2023-05-10T14:42:37.557Z,16.63
2023-05-10T14:45:05.686Z,16.76
2023-05-10T14:47:32.909Z,16.85
2023-05-10T14:50:00.169Z,16.78
2023-05-10T14:52:27.798Z,16.98
2023-05-10T14:54:54.972Z,16.86
2023-05-10T14:57:22.146Z,17.00
2023-05-10T14:59:49.310Z,16.87
2023-05-10T15:02:17.201Z,16.67
2023-05-10T15:04:44.845Z,16.79
2023-05-10T15:07:15.309Z,16.93
2023-05-10T15:09:42.604Z,17.02
2023-05-10T15:12:09.791Z,16.87
2023-05-10T15:14:37.625Z,16.93
2023-05-10T15:17:07.950Z,17.02
2023-05-10T15:19:35.194Z,16.92
2023-05-10T15:22:03.195Z,16.67
2023-05-10T15:24:31.677Z,16.87
2023-05-10T15:26:58.876Z,16.94
2023-05-10T15:29:26.048Z,16.81
2023-05-10T15:31:53.602Z,17.07
2023-05-10T15:34:21.069Z,16.83
2023-05-10T15:36:48.285Z,16.98
2023-05-10T15:39:15.480Z,16.94
2023-05-10T15:41:42.655Z,17.05
2023-05-10T15:44:09.786Z,17.28
2023-05-10T15:46:38.785Z,17.36
2023-05-10T15:49:06.729Z,17.35
2023-05-10T15:51:35.909Z,17.07
2023-05-10T15:54:07.517Z,16.45
2023-05-10T15:56:35.872Z,16.19
2023-05-10T15:59:03.726Z,16.09
2023-05-10T16:01:32.522Z,16.17
2023-05-10T16:04:00.932Z,15.88
2023-05-10T16:06:28.260Z,15.86
2023-05-10T16:08:55.433Z,15.78
2023-05-10T16:11:22.719Z,15.69
2023-05-10T16:13:50.016Z,15.84
2023-05-10T16:16:17.305Z,15.94
2023-05-10T16:18:44.652Z,15.91
2023-05-10T16:21:11.950Z,15.77
2023-05-10T16:23:39.697Z,15.75
2023-05-10T16:26:07.510Z,15.94
2023-05-10T16:28:35.158Z,15.76
2023-05-10T16:31:02.389Z,15.60
2023-05-10T16:33:29.629Z,15.58
2023-05-10T16:35:56.886Z,15.77
2023-05-10T16:38:24.034Z,15.70
2023-05-10T16:40:51.181Z,15.71
2023-05-10T16:43:19.200Z,15.75
2023-05-10T16:45:46.338Z,15.71
2023-05-10T16:48:13.478Z,15.67
2023-05-10T16:50:44.412Z,15.65
2023-05-10T16:53:11.749Z,15.69
2023-05-10T16:55:39.009Z,15.60
2023-05-10T16:58:06.235Z,15.61
2023-05-10T17:00:33.829Z,15.60
2023-05-10T17:03:01.236Z,15.58
2023-05-10T17:05:29.418Z,15.47
2023-05-10T17:07:56.587Z,15.53
2023-05-10T17:10:23.777Z,15.48
2023-05-10T17:12:51.325Z,15.48
2023-05-10T17:15:19.462Z,15.39
2023-05-10T17:17:47.718Z,15.45
2023-05-10T17:20:14.946Z,15.33
2023-05-10T17:22:42.114Z,15.25
2023-05-10T17:25:09.607Z,14.90
2023-05-10T17:27:37.010Z,14.86
2023-05-10T17:30:04.857Z,15.18
2023-05-10T17:32:32.172Z,15.10
2023-05-10T17:34:59.418Z,14.66
2023-05-10T17:37:26.577Z,14.68
2023-05-10T17:39:53.751Z,14.57
2023-05-10T17:42:21.079Z,14.77
2023-05-10T17:44:48.236Z,15.05
2023-05-10T17:47:15.510Z,15.06
2023-05-10T17:49:42.702Z,15.15
2023-05-10T17:52:09.919Z,15.10
2023-05-10T17:54:37.080Z,15.07
2023-05-10T17:57:04.280Z,14.87
2023-05-10T17:59:31.458Z,15.05
2023-05-10T18:01:58.635Z,15.20
2023-05-10T18:04:26.122Z,15.19
2023-05-10T18:07:00.947Z,15.13
2023-05-10T18:09:28.713Z,15.13
2023-05-10T18:11:55.908Z,15.13
2023-05-10T18:14:38.997Z,15.12
2023-05-10T18:17:07.835Z,15.13
2023-05-10T18:19:35.339Z,15.16
2023-05-10T18:22:02.719Z,15.17
2023-05-10T18:24:40.215Z,15.17
2023-05-10T18:27:10.572Z,15.12
2023-05-10T18:29:37.864Z,15.19
2023-05-10T18:32:05.481Z,15.25
2023-05-10T18:34:32.678Z,15.18
2023-05-10T18:37:00.052Z,15.14
2023-05-10T18:39:27.326Z,14.90
2023-05-10T18:41:54.568Z,14.86
2023-05-10T18:44:23.209Z,14.63
2023-05-10T18:46:54.050Z,14.94
2023-05-10T18:49:21.365Z,14.88
2023-05-10T18:51:48.513Z,15.13
2023-05-10T18:54:15.747Z,14.99
2023-05-10T18:56:45.095Z,14.69
2023-05-10T18:59:12.871Z,14.97
2023-05-10T19:01:43.334Z,14.84
2023-05-10T19:04:10.645Z,14.90
2023-05-10T19:06:37.925Z,14.80
2023-05-10T19:09:05.101Z,14.59
2023-05-10T19:11:34.258Z,14.99
2023-05-10T19:14:02.327Z,15.08
2023-05-10T19:16:30.423Z,15.01
2023-05-10T19:18:57.856Z,14.80
2023-05-10T19:21:25.283Z,14.75
2023-05-10T19:23:53.645Z,14.99
2023-05-10T19:26:21.738Z,14.84
2023-05-10T19:28:52.051Z,14.75
2023-05-10T19:31:21.282Z,14.66
2023-05-10T19:33:49.101Z,14.75
2023-05-10T19:36:16.529Z,14.87
2023-05-10T19:38:43.707Z,14.96
2023-05-10T19:41:11.601Z,14.94
2023-05-10T19:43:39.600Z,14.87
2023-05-10T19:46:06.958Z,14.94
2023-05-10T19:48:34.155Z,14.92
2023-05-10T19:51:03.757Z,14.85
2023-05-10T19:53:32.371Z,14.84
2023-05-10T19:56:05.211Z,14.87
2023-05-10T19:58:33.871Z,14.88
2023-05-10T20:01:01.598Z,14.85
2023-05-10T20:03:29.208Z,14.83
2023-05-10T20:05:56.459Z,14.84
2023-05-10T20:08:24.417Z,14.77
2023-05-10T20:10:51.572Z,14.86
2023-05-10T20:13:18.692Z,14.80
2023-05-10T20:15:46.571Z,14.73
2023-05-10T20:18:13.808Z,14.77
2023-05-10T20:20:41.105Z,14.73
2023-05-10T20:23:08.304Z,14.84
2023-05-10T20:25:35.562Z,14.72
2023-05-10T20:28:03.667Z,14.73
2023-05-10T20:30:30.937Z,14.70
2023-05-10T20:32:58.257Z,14.83
2023-05-10T20:35:25.550Z,14.86
2023-05-10T20:37:52.779Z,14.87
2023-05-10T20:40:20.289Z,14.92
2023-05-10T20:42:47.757Z,14.79
2023-05-10T20:45:15.717Z,14.68
2023-05-10T20:47:43.006Z,14.76
2023-05-10T20:50:11.623Z,14.79
2023-05-10T20:52:38.847Z,14.71
2023-05-10T20:55:06.777Z,14.86
2023-05-10T20:57:33.977Z,14.88
2023-05-10T21:00:01.148Z,14.79
2023-05-10T21:02:28.374Z,14.83
2023-05-10T21:04:57.752Z,14.73
2023-05-10T21:07:25.428Z,14.64
2023-05-10T21:09:52.583Z,14.63
2023-05-10T21:12:19.833Z,14.80
2023-05-10T21:14:47.733Z,14.73
2023-05-10T21:17:14.904Z,14.77
2023-05-10T21:19:43.874Z,14.69
2023-05-10T21:22:11.090Z,14.71
2023-05-10T21:24:38.478Z,14.48
2023-05-10T21:27:07.732Z,14.47
2023-05-10T21:29:34.983Z,14.64
2023-05-10T21:32:02.493Z,14.47
2023-05-10T21:34:30.113Z,14.40
2023-05-10T21:36:57.295Z,14.42
2023-05-10T21:39:24.471Z,14.50
2023-05-10T21:41:51.681Z,14.59
2023-05-10T21:44:18.920Z,14.25
2023-05-10T21:46:46.070Z,14.45
2023-05-10T21:49:13.222Z,14.40
2023-05-10T21:51:40.373Z,14.34
2023-05-10T21:54:07.676Z,14.50
2023-05-10T21:56:34.845Z,14.52
2023-05-10T21:59:02.012Z,14.47
2023-05-10T22:01:29.161Z,14.28
2023-05-10T22:03:56.419Z,14.55
2023-05-10T22:06:24.123Z,14.64
2023-05-10T22:08:51.310Z,14.58
2023-05-10T22:11:18.501Z,14.60
2023-05-10T22:13:45.664Z,14.64
2023-05-10T22:16:13.031Z,14.62
2023-05-10T22:18:40.313Z,14.65
2023-05-10T22:21:10.279Z,14.64
2023-05-10T22:23:37.502Z,14.50
2023-05-10T22:26:04.764Z,14.48
2023-05-10T22:28:31.924Z,14.43
2023-05-10T22:30:59.213Z,14.44
2023-05-10T22:33:26.370Z,14.41
2023-05-10T22:35:53.589Z,14.35
2023-05-10T22:38:20.738Z,14.43
2023-05-10T22:40:47.952Z,14.43
2023-05-10T22:43:16.920Z,14.40
2023-05-10T22:45:44.128Z,14.44
2023-05-10T22:48:11.325Z,14.40
2023-05-10T22:50:38.551Z,13.99
2023-05-10T22:53:06.645Z,13.89
2023-05-10T22:55:33.974Z,14.00
2023-05-10T22:58:01.410Z,13.88
2023-05-10T23:00:28.556Z,14.02
2023-05-10T23:02:55.856Z,13.99
2023-05-10T23:05:23.048Z,13.44
2023-05-10T23:07:53.210Z,13.71
2023-05-10T23:10:20.636Z,13.64
2023-05-10T23:12:48.088Z,13.75
2023-05-10T23:15:15.359Z,13.63
2023-05-10T23:17:42.622Z,13.46
2023-05-10T23:20:10.847Z,13.48
2023-05-10T23:22:38.115Z,13.31
2023-05-10T23:25:05.962Z,13.53
2023-05-10T23:27:33.257Z,13.83
2023-05-10T23:30:00.588Z,13.85
2023-05-10T23:32:27.780Z,13.72
2023-05-10T23:34:55.487Z,13.52
2023-05-10T23:37:22.636Z,13.69
2023-05-10T23:39:49.785Z,13.74
2023-05-10T23:42:16.944Z,13.53
2023-05-10T23:44:44.107Z,13.72
2023-05-10T23:47:11.301Z,13.68
2023-05-10T23:49:38.466Z,13.62
2023-05-10T23:52:05.656Z,13.56
2023-05-10T23:54:32.865Z,13.39
2023-05-10T23:57:00.041Z,13.43
2023-05-10T23:59:27.330Z,13.45
